sensor_id;sensor_type;location;lat;lon;timestamp;temperature;humidity
35377;DHT22;21480;51.642;4.834;2022-12-29T00:02:15;10.80;99.90
35377;DHT22;21480;51.642;4.834;2022-12-29T00:04:41;10.70;99.90
35377;DHT22;21480;51.642;4.834;2022-12-29T00:07:07;10.70;99.90
35377;DHT22;21480;51.642;4.834;2022-12-29T00:09:33;10.70;99.90
35377;DHT22;21480;51.642;4.834;2022-12-29T00:12:00;10.60;99.90
35377;DHT22;21480;51.642;4.834;2022-12-29T00:14:27;10.60;99.90
35377;DHT22;21480;51.642;4.834;2022-12-29T00:17:12;10.60;99.90
35377;DHT22;21480;51.642;4.834;2022-12-29T00:19:37;10.70;99.90
35377;DHT22;21480;51.642;4.834;2022-12-29T00:22:22;10.60;99.90
35377;DHT22;21480;51.642;4.834;2022-12-29T00:25:12;10.60;99.90
35377;DHT22;21480;51.642;4.834;2022-12-29T00:27:57;10.60;99.90
35377;DHT22;21480;51.642;4.834;2022-12-29T00:30:41;10.70;99.90
35377;DHT22;21480;51.642;4.834;2022-12-29T00:33:29;10.60;99.90
35377;DHT22;21480;51.642;4.834;2022-12-29T00:36:34;10.60;99.90
35377;DHT22;21480;51.642;4.834;2022-12-29T00:39:09;10.60;99.90
35377;DHT22;21480;51.642;4.834;2022-12-29T00:41:54;10.60;99.90
35377;DHT22;21480;51.642;4.834;2022-12-29T00:44:38;10.60;99.90
35377;DHT22;21480;51.642;4.834;2022-12-29T00:47:04;10.50;99.90
35377;DHT22;21480;51.642;4.834;2022-12-29T00:49:30;10.50;99.90
35377;DHT22;21480;51.642;4.834;2022-12-29T00:52:02;10.50;99.90
35377;DHT22;21480;51.642;4.834;2022-12-29T00:54:33;10.50;99.90
35377;DHT22;21480;51.642;4.834;2022-12-29T00:57:00;10.50;99.90
35377;DHT22;21480;51.642;4.834;2022-12-29T00:59:26;10.50;99.90
35377;DHT22;21480;51.642;4.834;2022-12-29T01:01:54;10.50;99.90
35377;DHT22;21480;51.642;4.834;2022-12-29T01:04:21;10.50;99.90
35377;DHT22;21480;51.642;4.834;2022-12-29T01:06:47;10.50;99.90
35377;DHT22;21480;51.642;4.834;2022-12-29T01:09:13;10.50;99.90
35377;DHT22;21480;51.642;4.834;2022-12-29T01:11:58;10.60;99.90
35377;DHT22;21480;51.642;4.834;2022-12-29T01:14:24;10.60;99.90
35377;DHT22;21480;51.642;4.834;2022-12-29T01:16:50;10.60;99.90
35377;DHT22;21480;51.642;4.834;2022-12-29T01:19:17;10.60;99.90
35377;DHT22;21480;51.642;4.834;2022-12-29T01:21:43;10.60;99.90
35377;DHT22;21480;51.642;4.834;2022-12-29T01:24:09;10.60;99.90
35377;DHT22;21480;51.642;4.834;2022-12-29T01:26:35;10.60;99.90
35377;DHT22;21480;51.642;4.834;2022-12-29T01:29:01;10.60;99.90
35377;DHT22;21480;51.642;4.834;2022-12-29T01:31:27;10.60;99.90
35377;DHT22;21480;51.642;4.834;2022-12-29T01:33:53;10.60;99.90
35377;DHT22;21480;51.642;4.834;2022-12-29T01:36:19;10.60;99.90
35377;DHT22;21480;51.642;4.834;2022-12-29T01:38:45;10.60;99.90
35377;DHT22;21480;51.642;4.834;2022-12-29T01:41:13;10.60;99.90
35377;DHT22;21480;51.642;4.834;2022-12-29T01:46:19;10.50;99.90
35377;DHT22;21480;51.642;4.834;2022-12-29T01:48:47;10.40;99.90
35377;DHT22;21480;51.642;4.834;2022-12-29T01:51:14;10.50;99.90
35377;DHT22;21480;51.642;4.834;2022-12-29T01:53:40;10.40;99.90
35377;DHT22;21480;51.642;4.834;2022-12-29T01:56:10;10.40;99.90
35377;DHT22;21480;51.642;4.834;2022-12-29T01:58:40;10.40;99.90
35377;DHT22;21480;51.642;4.834;2022-12-29T02:01:07;10.40;99.90
35377;DHT22;21480;51.642;4.834;2022-12-29T02:03:34;10.40;99.90
35377;DHT22;21480;51.642;4.834;2022-12-29T02:06:22;10.40;99.90
35377;DHT22;21480;51.642;4.834;2022-12-29T02:08:50;10.30;99.90
35377;DHT22;21480;51.642;4.834;2022-12-29T02:11:18;10.30;99.90
35377;DHT22;21480;51.642;4.834;2022-12-29T02:13:44;10.30;99.90
35377;DHT22;21480;51.642;4.834;2022-12-29T02:36:00;10.20;99.90
35377;DHT22;21480;51.642;4.834;2022-12-29T02:38:51;10.20;99.90
35377;DHT22;21480;51.642;4.834;2022-12-29T02:44:59;10.10;99.90
35377;DHT22;21480;51.642;4.834;2022-12-29T02:47:39;10.10;99.90
35377;DHT22;21480;51.642;4.834;2022-12-29T02:50:20;10.10;99.90
35377;DHT22;21480;51.642;4.834;2022-12-29T02:52:57;10.00;99.90
35377;DHT22;21480;51.642;4.834;2022-12-29T02:55:24;10.00;99.90
35377;DHT22;21480;51.642;4.834;2022-12-29T03:01:16;10.10;99.90
35377;DHT22;21480;51.642;4.834;2022-12-29T03:04:14;10.10;99.90
35377;DHT22;21480;51.642;4.834;2022-12-29T03:06:56;10.00;99.90
35377;DHT22;21480;51.642;4.834;2022-12-29T03:15:03;9.90;99.90
35377;DHT22;21480;51.642;4.834;2022-12-29T03:18:03;9.90;99.90
35377;DHT22;21480;51.642;4.834;2022-12-29T03:21:14;9.80;99.90
35377;DHT22;21480;51.642;4.834;2022-12-29T03:23:31;9.70;99.90
35377;DHT22;21480;51.642;4.834;2022-12-29T03:26:01;9.70;99.90
35377;DHT22;21480;51.642;4.834;2022-12-29T03:28:33;9.80;99.90
35377;DHT22;21480;51.642;4.834;2022-12-29T03:31:03;9.80;99.90
35377;DHT22;21480;51.642;4.834;2022-12-29T03:33:30;9.80;99.90
35377;DHT22;21480;51.642;4.834;2022-12-29T03:36:01;9.90;99.90
35377;DHT22;21480;51.642;4.834;2022-12-29T03:38:52;9.90;99.90
35377;DHT22;21480;51.642;4.834;2022-12-29T03:41:27;9.90;99.90
35377;DHT22;21480;51.642;4.834;2022-12-29T03:43:53;9.90;99.90
35377;DHT22;21480;51.642;4.834;2022-12-29T03:46:20;10.00;99.90
35377;DHT22;21480;51.642;4.834;2022-12-29T03:48:45;10.00;99.90
35377;DHT22;21480;51.642;4.834;2022-12-29T03:51:11;9.80;99.90
35377;DHT22;21480;51.642;4.834;2022-12-29T03:53:37;9.80;99.90
35377;DHT22;21480;51.642;4.834;2022-12-29T03:56:03;9.70;99.90
35377;DHT22;21480;51.642;4.834;2022-12-29T03:58:29;9.60;99.90
35377;DHT22;21480;51.642;4.834;2022-12-29T04:00:55;9.50;99.90
35377;DHT22;21480;51.642;4.834;2022-12-29T04:03:20;9.40;99.90
35377;DHT22;21480;51.642;4.834;2022-12-29T04:05:46;9.40;99.90
35377;DHT22;21480;51.642;4.834;2022-12-29T04:08:12;9.30;99.90
35377;DHT22;21480;51.642;4.834;2022-12-29T04:10:38;9.20;99.90
35377;DHT22;21480;51.642;4.834;2022-12-29T04:13:03;9.20;99.90
35377;DHT22;21480;51.642;4.834;2022-12-29T04:15:29;9.20;99.90
35377;DHT22;21480;51.642;4.834;2022-12-29T04:17:55;9.20;99.90
35377;DHT22;21480;51.642;4.834;2022-12-29T04:20:20;9.20;99.90
35377;DHT22;21480;51.642;4.834;2022-12-29T04:23:06;9.20;99.90
35377;DHT22;21480;51.642;4.834;2022-12-29T04:25:32;9.10;99.90
35377;DHT22;21480;51.642;4.834;2022-12-29T04:27:58;9.10;99.90
35377;DHT22;21480;51.642;4.834;2022-12-29T04:30:24;9.10;99.90
35377;DHT22;21480;51.642;4.834;2022-12-29T04:32:50;9.10;99.90
35377;DHT22;21480;51.642;4.834;2022-12-29T04:35:16;9.00;99.90
35377;DHT22;21480;51.642;4.834;2022-12-29T04:37:42;9.00;99.90
35377;DHT22;21480;51.642;4.834;2022-12-29T04:40:08;9.00;99.90
35377;DHT22;21480;51.642;4.834;2022-12-29T04:42:34;8.90;99.90
35377;DHT22;21480;51.642;4.834;2022-12-29T04:45:00;8.90;99.90
35377;DHT22;21480;51.642;4.834;2022-12-29T04:47:25;8.90;99.90
35377;DHT22;21480;51.642;4.834;2022-12-29T04:49:51;8.90;99.90
35377;DHT22;21480;51.642;4.834;2022-12-29T04:52:17;8.90;99.90
35377;DHT22;21480;51.642;4.834;2022-12-29T04:54:42;8.90;99.90
35377;DHT22;21480;51.642;4.834;2022-12-29T04:57:08;9.00;99.90
35377;DHT22;21480;51.642;4.834;2022-12-29T04:59:34;9.00;99.90
35377;DHT22;21480;51.642;4.834;2022-12-29T05:01:59;9.00;99.90
35377;DHT22;21480;51.642;4.834;2022-12-29T05:04:25;9.00;99.90
35377;DHT22;21480;51.642;4.834;2022-12-29T05:06:51;8.90;99.90
35377;DHT22;21480;51.642;4.834;2022-12-29T05:09:17;8.90;99.90
35377;DHT22;21480;51.642;4.834;2022-12-29T05:11:42;8.90;99.90
35377;DHT22;21480;51.642;4.834;2022-12-29T05:14:08;8.90;99.90
35377;DHT22;21480;51.642;4.834;2022-12-29T05:16:34;9.00;99.90
35377;DHT22;21480;51.642;4.834;2022-12-29T05:19:00;9.10;99.90
35377;DHT22;21480;51.642;4.834;2022-12-29T05:21:25;9.10;99.90
35377;DHT22;21480;51.642;4.834;2022-12-29T05:23:51;9.10;99.90
35377;DHT22;21480;51.642;4.834;2022-12-29T05:26:17;9.10;99.90
35377;DHT22;21480;51.642;4.834;2022-12-29T05:28:42;9.10;99.90
35377;DHT22;21480;51.642;4.834;2022-12-29T05:31:08;9.10;99.90
35377;DHT22;21480;51.642;4.834;2022-12-29T05:33:34;9.20;99.90
35377;DHT22;21480;51.642;4.834;2022-12-29T05:36:07;9.20;99.90
35377;DHT22;21480;51.642;4.834;2022-12-29T05:38:34;9.30;99.90
35377;DHT22;21480;51.642;4.834;2022-12-29T05:41:00;9.20;99.90
35377;DHT22;21480;51.642;4.834;2022-12-29T05:43:26;9.20;99.90
35377;DHT22;21480;51.642;4.834;2022-12-29T05:45:53;9.20;99.90
35377;DHT22;21480;51.642;4.834;2022-12-29T05:48:19;9.20;99.90
35377;DHT22;21480;51.642;4.834;2022-12-29T05:50:49;9.20;99.90
35377;DHT22;21480;51.642;4.834;2022-12-29T05:53:15;9.20;99.90
35377;DHT22;21480;51.642;4.834;2022-12-29T05:55:41;9.20;99.90
35377;DHT22;21480;51.642;4.834;2022-12-29T05:58:07;9.30;99.90
35377;DHT22;21480;51.642;4.834;2022-12-29T06:00:33;9.30;99.90
35377;DHT22;21480;51.642;4.834;2022-12-29T06:02:58;9.30;99.90
35377;DHT22;21480;51.642;4.834;2022-12-29T06:05:24;9.30;99.90
35377;DHT22;21480;51.642;4.834;2022-12-29T06:07:50;9.30;99.90
35377;DHT22;21480;51.642;4.834;2022-12-29T06:10:15;9.30;99.90
35377;DHT22;21480;51.642;4.834;2022-12-29T06:12:41;9.30;99.90
35377;DHT22;21480;51.642;4.834;2022-12-29T06:15:07;9.30;99.90
35377;DHT22;21480;51.642;4.834;2022-12-29T06:17:33;9.40;99.90
35377;DHT22;21480;51.642;4.834;2022-12-29T06:19:59;9.30;99.90
35377;DHT22;21480;51.642;4.834;2022-12-29T06:22:24;9.30;99.90
35377;DHT22;21480;51.642;4.834;2022-12-29T06:24:50;9.30;99.90
35377;DHT22;21480;51.642;4.834;2022-12-29T06:27:16;9.40;99.90
35377;DHT22;21480;51.642;4.834;2022-12-29T06:29:41;9.40;99.90
35377;DHT22;21480;51.642;4.834;2022-12-29T06:32:09;9.40;99.90
35377;DHT22;21480;51.642;4.834;2022-12-29T06:34:35;9.50;99.90
35377;DHT22;21480;51.642;4.834;2022-12-29T06:37:01;9.40;99.90
35377;DHT22;21480;51.642;4.834;2022-12-29T06:39:27;9.50;99.90
35377;DHT22;21480;51.642;4.834;2022-12-29T06:41:53;9.50;99.90
35377;DHT22;21480;51.642;4.834;2022-12-29T06:44:20;9.50;99.90
35377;DHT22;21480;51.642;4.834;2022-12-29T06:46:46;9.50;99.90
35377;DHT22;21480;51.642;4.834;2022-12-29T06:49:12;9.50;99.90
35377;DHT22;21480;51.642;4.834;2022-12-29T06:51:38;9.60;99.90
35377;DHT22;21480;51.642;4.834;2022-12-29T06:54:04;9.50;99.90
35377;DHT22;21480;51.642;4.834;2022-12-29T06:56:30;9.60;99.90
35377;DHT22;21480;51.642;4.834;2022-12-29T06:58:55;9.50;99.90
35377;DHT22;21480;51.642;4.834;2022-12-29T07:01:21;9.60;99.90
35377;DHT22;21480;51.642;4.834;2022-12-29T07:03:47;9.60;99.90
35377;DHT22;21480;51.642;4.834;2022-12-29T07:06:13;9.70;99.90
35377;DHT22;21480;51.642;4.834;2022-12-29T07:08:38;9.70;99.90
35377;DHT22;21480;51.642;4.834;2022-12-29T07:11:05;9.70;99.90
35377;DHT22;21480;51.642;4.834;2022-12-29T07:13:31;9.70;99.90
35377;DHT22;21480;51.642;4.834;2022-12-29T07:15:57;9.60;99.90
35377;DHT22;21480;51.642;4.834;2022-12-29T07:18:23;9.60;99.90
35377;DHT22;21480;51.642;4.834;2022-12-29T07:20:49;9.50;99.90
35377;DHT22;21480;51.642;4.834;2022-12-29T07:23:15;9.50;99.90
35377;DHT22;21480;51.642;4.834;2022-12-29T07:25:40;9.60;99.90
35377;DHT22;21480;51.642;4.834;2022-12-29T07:28:07;9.50;99.90
35377;DHT22;21480;51.642;4.834;2022-12-29T07:30:33;9.50;99.90
35377;DHT22;21480;51.642;4.834;2022-12-29T07:32:59;9.40;99.90
35377;DHT22;21480;51.642;4.834;2022-12-29T07:35:24;9.30;99.90
35377;DHT22;21480;51.642;4.834;2022-12-29T07:37:50;9.30;99.90
35377;DHT22;21480;51.642;4.834;2022-12-29T07:40:16;9.20;99.90
35377;DHT22;21480;51.642;4.834;2022-12-29T07:42:41;9.30;99.90
35377;DHT22;21480;51.642;4.834;2022-12-29T07:45:08;9.40;99.90
35377;DHT22;21480;51.642;4.834;2022-12-29T07:47:34;9.40;99.90
35377;DHT22;21480;51.642;4.834;2022-12-29T07:50:00;9.50;99.90
35377;DHT22;21480;51.642;4.834;2022-12-29T07:52:26;9.40;99.90
35377;DHT22;21480;51.642;4.834;2022-12-29T07:54:51;9.40;99.90
35377;DHT22;21480;51.642;4.834;2022-12-29T07:57:17;9.50;99.90
35377;DHT22;21480;51.642;4.834;2022-12-29T07:59:43;9.60;99.90
35377;DHT22;21480;51.642;4.834;2022-12-29T08:02:12;9.60;99.90
35377;DHT22;21480;51.642;4.834;2022-12-29T08:04:37;9.60;99.90
35377;DHT22;21480;51.642;4.834;2022-12-29T08:07:03;9.60;99.90
35377;DHT22;21480;51.642;4.834;2022-12-29T08:09:29;9.60;99.90
35377;DHT22;21480;51.642;4.834;2022-12-29T08:11:55;9.60;99.90
35377;DHT22;21480;51.642;4.834;2022-12-29T08:14:20;9.60;99.90
35377;DHT22;21480;51.642;4.834;2022-12-29T08:16:46;9.70;99.90
35377;DHT22;21480;51.642;4.834;2022-12-29T08:19:12;9.80;99.90
35377;DHT22;21480;51.642;4.834;2022-12-29T08:21:38;9.80;99.90
35377;DHT22;21480;51.642;4.834;2022-12-29T08:24:05;9.80;99.90
35377;DHT22;21480;51.642;4.834;2022-12-29T08:26:31;9.80;99.90
35377;DHT22;21480;51.642;4.834;2022-12-29T08:28:57;9.90;99.90
35377;DHT22;21480;51.642;4.834;2022-12-29T08:31:23;10.00;99.90
35377;DHT22;21480;51.642;4.834;2022-12-29T08:33:49;10.00;99.90
35377;DHT22;21480;51.642;4.834;2022-12-29T08:36:15;10.00;99.90
35377;DHT22;21480;51.642;4.834;2022-12-29T08:38:41;9.90;99.90
35377;DHT22;21480;51.642;4.834;2022-12-29T08:41:07;10.00;99.90
35377;DHT22;21480;51.642;4.834;2022-12-29T08:43:33;10.00;99.90
35377;DHT22;21480;51.642;4.834;2022-12-29T08:45:59;10.10;99.90
35377;DHT22;21480;51.642;4.834;2022-12-29T08:48:26;10.10;99.90
35377;DHT22;21480;51.642;4.834;2022-12-29T08:50:52;10.10;99.90
35377;DHT22;21480;51.642;4.834;2022-12-29T08:53:18;10.10;99.90
35377;DHT22;21480;51.642;4.834;2022-12-29T08:55:58;10.00;99.90
35377;DHT22;21480;51.642;4.834;2022-12-29T08:58:24;9.90;99.90
35377;DHT22;21480;51.642;4.834;2022-12-29T09:00:56;9.70;99.90
35377;DHT22;21480;51.642;4.834;2022-12-29T09:03:23;9.70;99.90
35377;DHT22;21480;51.642;4.834;2022-12-29T09:05:50;9.50;99.90
35377;DHT22;21480;51.642;4.834;2022-12-29T09:08:17;9.30;99.90
35377;DHT22;21480;51.642;4.834;2022-12-29T09:10:43;9.10;99.90
35377;DHT22;21480;51.642;4.834;2022-12-29T09:13:11;9.00;99.90
35377;DHT22;21480;51.642;4.834;2022-12-29T09:15:37;8.90;99.90
35377;DHT22;21480;51.642;4.834;2022-12-29T09:18:03;9.00;99.90
35377;DHT22;21480;51.642;4.834;2022-12-29T09:20:29;8.90;99.90
35377;DHT22;21480;51.642;4.834;2022-12-29T09:22:54;8.80;99.90
35377;DHT22;21480;51.642;4.834;2022-12-29T09:25:20;8.80;99.90
35377;DHT22;21480;51.642;4.834;2022-12-29T09:27:49;8.70;99.90
35377;DHT22;21480;51.642;4.834;2022-12-29T09:30:14;8.70;99.90
35377;DHT22;21480;51.642;4.834;2022-12-29T09:32:41;8.60;99.90
35377;DHT22;21480;51.642;4.834;2022-12-29T09:35:07;8.60;99.90
35377;DHT22;21480;51.642;4.834;2022-12-29T09:37:34;8.50;99.90
35377;DHT22;21480;51.642;4.834;2022-12-29T09:40:00;8.50;99.90
35377;DHT22;21480;51.642;4.834;2022-12-29T09:42:41;8.50;99.90
35377;DHT22;21480;51.642;4.834;2022-12-29T09:45:36;8.50;99.90
35377;DHT22;21480;51.642;4.834;2022-12-29T09:48:14;8.50;99.90
35377;DHT22;21480;51.642;4.834;2022-12-29T09:50:44;8.50;99.90
35377;DHT22;21480;51.642;4.834;2022-12-29T09:53:20;8.50;99.90
35377;DHT22;21480;51.642;4.834;2022-12-29T09:55:52;8.50;99.90
35377;DHT22;21480;51.642;4.834;2022-12-29T10:01:08;8.50;99.90
35377;DHT22;21480;51.642;4.834;2022-12-29T10:06:29;8.60;99.90
35377;DHT22;21480;51.642;4.834;2022-12-29T10:09:17;8.60;99.90
35377;DHT22;21480;51.642;4.834;2022-12-29T10:17:48;8.70;99.90
35377;DHT22;21480;51.642;4.834;2022-12-29T10:26:01;8.70;99.90
35377;DHT22;21480;51.642;4.834;2022-12-29T10:31:11;8.80;99.90
35377;DHT22;21480;51.642;4.834;2022-12-29T10:33:41;8.80;99.90
35377;DHT22;21480;51.642;4.834;2022-12-29T10:37:02;8.80;99.90
35377;DHT22;21480;51.642;4.834;2022-12-29T10:39:25;8.80;99.90
35377;DHT22;21480;51.642;4.834;2022-12-29T10:44:29;8.90;99.90
35377;DHT22;21480;51.642;4.834;2022-12-29T10:47:10;9.00;99.90
35377;DHT22;21480;51.642;4.834;2022-12-29T10:49:40;9.00;99.90
35377;DHT22;21480;51.642;4.834;2022-12-29T10:52:07;9.10;99.90
35377;DHT22;21480;51.642;4.834;2022-12-29T10:57:32;9.40;99.90
35377;DHT22;21480;51.642;4.834;2022-12-29T10:59:59;9.70;99.90
35377;DHT22;21480;51.642;4.834;2022-12-29T11:05:23;10.00;99.90
35377;DHT22;21480;51.642;4.834;2022-12-29T11:07:56;10.20;99.90
35377;DHT22;21480;51.642;4.834;2022-12-29T11:10:35;10.00;99.90
35377;DHT22;21480;51.642;4.834;2022-12-29T11:13:27;10.10;99.90
35377;DHT22;21480;51.642;4.834;2022-12-29T11:15:54;9.80;99.90
35377;DHT22;21480;51.642;4.834;2022-12-29T11:18:26;9.80;99.90
35377;DHT22;21480;51.642;4.834;2022-12-29T11:20:55;9.60;99.90
35377;DHT22;21480;51.642;4.834;2022-12-29T11:23:24;9.50;99.90
35377;DHT22;21480;51.642;4.834;2022-12-29T11:28:46;9.40;99.90
35377;DHT22;21480;51.642;4.834;2022-12-29T11:31:16;9.40;99.90
35377;DHT22;21480;51.642;4.834;2022-12-29T11:33:42;9.40;99.90
35377;DHT22;21480;51.642;4.834;2022-12-29T11:36:13;9.40;99.90
35377;DHT22;21480;51.642;4.834;2022-12-29T11:38:45;9.50;99.90
35377;DHT22;21480;51.642;4.834;2022-12-29T11:41:13;9.40;99.90
35377;DHT22;21480;51.642;4.834;2022-12-29T11:43:44;9.40;99.90
35377;DHT22;21480;51.642;4.834;2022-12-29T11:46:27;9.40;99.90
35377;DHT22;21480;51.642;4.834;2022-12-29T11:48:53;9.50;99.90
35377;DHT22;21480;51.642;4.834;2022-12-29T11:51:27;9.50;99.90
35377;DHT22;21480;51.642;4.834;2022-12-29T11:53:57;9.60;99.90
35377;DHT22;21480;51.642;4.834;2022-12-29T12:01:53;9.50;99.90
35377;DHT22;21480;51.642;4.834;2022-12-29T12:04:22;9.50;99.90
35377;DHT22;21480;51.642;4.834;2022-12-29T12:09:54;9.50;99.90
35377;DHT22;21480;51.642;4.834;2022-12-29T12:12:28;9.80;99.90
35377;DHT22;21480;51.642;4.834;2022-12-29T12:14:58;10.10;99.90
35377;DHT22;21480;51.642;4.834;2022-12-29T12:17:37;10.40;99.90
35377;DHT22;21480;51.642;4.834;2022-12-29T12:25:23;10.20;99.90
35377;DHT22;21480;51.642;4.834;2022-12-29T12:28:05;10.20;99.90
35377;DHT22;21480;51.642;4.834;2022-12-29T12:30:41;10.30;99.90
35377;DHT22;21480;51.642;4.834;2022-12-29T12:33:24;10.20;99.90
35377;DHT22;21480;51.642;4.834;2022-12-29T12:38:34;10.30;99.90
35377;DHT22;21480;51.642;4.834;2022-12-29T12:41:12;10.20;99.90
35377;DHT22;21480;51.642;4.834;2022-12-29T12:54:14;10.20;99.90
35377;DHT22;21480;51.642;4.834;2022-12-29T13:10:42;9.60;99.90
35377;DHT22;21480;51.642;4.834;2022-12-29T13:16:17;9.20;99.90
35377;DHT22;21480;51.642;4.834;2022-12-29T13:22:39;8.90;99.90
35377;DHT22;21480;51.642;4.834;2022-12-29T13:32:59;8.90;99.90
35377;DHT22;21480;51.642;4.834;2022-12-29T13:38:40;8.90;99.90
35377;DHT22;21480;51.642;4.834;2022-12-29T13:41:14;8.90;99.90
35377;DHT22;21480;51.642;4.834;2022-12-29T13:43:46;8.90;99.90
35377;DHT22;21480;51.642;4.834;2022-12-29T13:46:23;8.90;99.90
35377;DHT22;21480;51.642;4.834;2022-12-29T13:51:21;9.00;99.90
35377;DHT22;21480;51.642;4.834;2022-12-29T13:56:49;9.10;99.90
35377;DHT22;21480;51.642;4.834;2022-12-29T13:59:42;9.10;99.90
35377;DHT22;21480;51.642;4.834;2022-12-29T14:07:26;9.30;99.90
35377;DHT22;21480;51.642;4.834;2022-12-29T14:09:54;9.30;99.90
35377;DHT22;21480;51.642;4.834;2022-12-29T14:12:40;9.30;99.90
35377;DHT22;21480;51.642;4.834;2022-12-29T14:17:39;9.30;99.90
35377;DHT22;21480;51.642;4.834;2022-12-29T14:20:21;9.20;99.90
35377;DHT22;21480;51.642;4.834;2022-12-29T14:23:16;9.20;99.90
35377;DHT22;21480;51.642;4.834;2022-12-29T14:28:38;9.10;99.90
35377;DHT22;21480;51.642;4.834;2022-12-29T14:36:40;9.10;99.90
35377;DHT22;21480;51.642;4.834;2022-12-29T14:44:33;8.70;99.90
35377;DHT22;21480;51.642;4.834;2022-12-29T14:47:04;8.60;99.90
35377;DHT22;21480;51.642;4.834;2022-12-29T14:49:39;8.60;99.90
35377;DHT22;21480;51.642;4.834;2022-12-29T14:54:56;8.60;99.90
35377;DHT22;21480;51.642;4.834;2022-12-29T14:57:39;8.50;99.90
35377;DHT22;21480;51.642;4.834;2022-12-29T15:00:30;8.50;99.90
35377;DHT22;21480;51.642;4.834;2022-12-29T15:05:53;8.50;99.90
35377;DHT22;21480;51.642;4.834;2022-12-29T15:08:28;8.40;99.90
35377;DHT22;21480;51.642;4.834;2022-12-29T15:11:02;8.40;99.90
35377;DHT22;21480;51.642;4.834;2022-12-29T15:13:40;8.40;99.90
35377;DHT22;21480;51.642;4.834;2022-12-29T15:16:30;8.40;99.90
35377;DHT22;21480;51.642;4.834;2022-12-29T15:18:57;8.40;99.90
35377;DHT22;21480;51.642;4.834;2022-12-29T15:21:26;8.50;99.90
35377;DHT22;21480;51.642;4.834;2022-12-29T15:23:52;8.50;99.90
35377;DHT22;21480;51.642;4.834;2022-12-29T15:26:18;8.50;99.90
35377;DHT22;21480;51.642;4.834;2022-12-29T15:28:49;8.50;99.90
35377;DHT22;21480;51.642;4.834;2022-12-29T15:31:23;8.50;99.90
35377;DHT22;21480;51.642;4.834;2022-12-29T15:33:55;8.50;99.90
35377;DHT22;21480;51.642;4.834;2022-12-29T15:36:29;8.50;99.90
35377;DHT22;21480;51.642;4.834;2022-12-29T15:39:35;8.50;99.90
35377;DHT22;21480;51.642;4.834;2022-12-29T15:42:09;8.40;99.90
35377;DHT22;21480;51.642;4.834;2022-12-29T15:44:42;8.40;99.90
35377;DHT22;21480;51.642;4.834;2022-12-29T15:47:22;8.40;99.90
35377;DHT22;21480;51.642;4.834;2022-12-29T15:50:07;8.40;99.90
35377;DHT22;21480;51.642;4.834;2022-12-29T15:52:34;8.30;99.90
35377;DHT22;21480;51.642;4.834;2022-12-29T15:55:01;8.30;99.90
35377;DHT22;21480;51.642;4.834;2022-12-29T15:57:37;8.30;99.90
35377;DHT22;21480;51.642;4.834;2022-12-29T16:00:17;8.20;99.90
35377;DHT22;21480;51.642;4.834;2022-12-29T16:02:46;8.20;99.90
35377;DHT22;21480;51.642;4.834;2022-12-29T16:05:17;8.20;99.90
35377;DHT22;21480;51.642;4.834;2022-12-29T16:07:58;8.20;99.90
35377;DHT22;21480;51.642;4.834;2022-12-29T16:10:37;8.20;99.90
35377;DHT22;21480;51.642;4.834;2022-12-29T16:15:46;8.30;99.90
35377;DHT22;21480;51.642;4.834;2022-12-29T16:18:35;8.30;99.90
35377;DHT22;21480;51.642;4.834;2022-12-29T16:21:06;8.30;99.90
35377;DHT22;21480;51.642;4.834;2022-12-29T16:23:42;8.10;99.90
35377;DHT22;21480;51.642;4.834;2022-12-29T16:26:16;8.10;99.90
35377;DHT22;21480;51.642;4.834;2022-12-29T16:28:43;8.20;99.90
35377;DHT22;21480;51.642;4.834;2022-12-29T16:31:33;8.10;99.90
35377;DHT22;21480;51.642;4.834;2022-12-29T16:34:11;8.00;99.90
35377;DHT22;21480;51.642;4.834;2022-12-29T16:36:55;8.10;99.90
35377;DHT22;21480;51.642;4.834;2022-12-29T16:39:33;8.00;99.90
35377;DHT22;21480;51.642;4.834;2022-12-29T16:41:59;8.10;99.90
35377;DHT22;21480;51.642;4.834;2022-12-29T16:44:30;8.00;99.90
35377;DHT22;21480;51.642;4.834;2022-12-29T16:47:19;8.00;99.90
35377;DHT22;21480;51.642;4.834;2022-12-29T16:49:50;8.00;99.90
35377;DHT22;21480;51.642;4.834;2022-12-29T16:52:33;8.00;99.90
35377;DHT22;21480;51.642;4.834;2022-12-29T16:55:02;8.10;99.90
35377;DHT22;21480;51.642;4.834;2022-12-29T16:57:31;8.10;99.90
35377;DHT22;21480;51.642;4.834;2022-12-29T17:00:17;8.10;99.90
35377;DHT22;21480;51.642;4.834;2022-12-29T17:02:43;8.20;99.90
35377;DHT22;21480;51.642;4.834;2022-12-29T17:05:13;8.20;99.90
35377;DHT22;21480;51.642;4.834;2022-12-29T17:07:40;8.10;99.90
35377;DHT22;21480;51.642;4.834;2022-12-29T17:10:06;8.20;99.90
35377;DHT22;21480;51.642;4.834;2022-12-29T17:12:34;8.10;99.90
35377;DHT22;21480;51.642;4.834;2022-12-29T17:15:28;8.00;99.90
35377;DHT22;21480;51.642;4.834;2022-12-29T17:17:59;7.90;99.90
35377;DHT22;21480;51.642;4.834;2022-12-29T17:20:29;7.80;99.90
35377;DHT22;21480;51.642;4.834;2022-12-29T17:22:57;7.80;99.90
35377;DHT22;21480;51.642;4.834;2022-12-29T17:25:27;7.70;99.90
35377;DHT22;21480;51.642;4.834;2022-12-29T17:28:12;7.70;99.90
35377;DHT22;21480;51.642;4.834;2022-12-29T17:30:41;7.60;99.90
35377;DHT22;21480;51.642;4.834;2022-12-29T17:33:12;7.70;99.90
35377;DHT22;21480;51.642;4.834;2022-12-29T17:35:39;7.70;99.90
35377;DHT22;21480;51.642;4.834;2022-12-29T17:38:29;7.70;99.90
35377;DHT22;21480;51.642;4.834;2022-12-29T17:40:56;7.70;99.90
35377;DHT22;21480;51.642;4.834;2022-12-29T17:43:22;7.60;99.90
35377;DHT22;21480;51.642;4.834;2022-12-29T17:45:55;7.50;99.90
35377;DHT22;21480;51.642;4.834;2022-12-29T17:48:22;7.50;99.90
35377;DHT22;21480;51.642;4.834;2022-12-29T17:50:51;7.50;99.90
35377;DHT22;21480;51.642;4.834;2022-12-29T17:53:23;7.50;99.90
35377;DHT22;21480;51.642;4.834;2022-12-29T17:55:50;7.40;99.90
35377;DHT22;21480;51.642;4.834;2022-12-29T18:00:53;7.40;99.90
35377;DHT22;21480;51.642;4.834;2022-12-29T18:03:31;7.40;99.90
35377;DHT22;21480;51.642;4.834;2022-12-29T18:05:58;7.50;99.90
35377;DHT22;21480;51.642;4.834;2022-12-29T18:08:23;7.50;99.90
35377;DHT22;21480;51.642;4.834;2022-12-29T18:10:53;7.50;99.90
35377;DHT22;21480;51.642;4.834;2022-12-29T18:13:26;7.50;99.90
35377;DHT22;21480;51.642;4.834;2022-12-29T18:15:52;7.60;99.90
35377;DHT22;21480;51.642;4.834;2022-12-29T18:18:20;7.50;99.90
35377;DHT22;21480;51.642;4.834;2022-12-29T18:20:47;7.50;99.90
35377;DHT22;21480;51.642;4.834;2022-12-29T18:23:28;7.50;99.90
35377;DHT22;21480;51.642;4.834;2022-12-29T18:28:23;7.60;99.90
35377;DHT22;21480;51.642;4.834;2022-12-29T18:30:50;7.60;99.90
35377;DHT22;21480;51.642;4.834;2022-12-29T18:33:17;7.60;99.90
35377;DHT22;21480;51.642;4.834;2022-12-29T18:36:13;7.50;99.90
35377;DHT22;21480;51.642;4.834;2022-12-29T18:38:39;7.60;99.90
35377;DHT22;21480;51.642;4.834;2022-12-29T18:41:08;7.50;99.90
35377;DHT22;21480;51.642;4.834;2022-12-29T18:43:37;7.50;99.90
35377;DHT22;21480;51.642;4.834;2022-12-29T18:46:03;7.50;99.90
35377;DHT22;21480;51.642;4.834;2022-12-29T18:48:29;7.40;99.90
35377;DHT22;21480;51.642;4.834;2022-12-29T18:50:54;7.50;99.90